Polacca, Arizona
Current Conditions -  °F | °C
As of 5:56 AM on Monday 22 Dec 2014 (Local Time) from KINW Reporting Station
Clear Clear  
Wind Chill: 29°   Ceiling: Unl
Heat Index: 29°   Visibility: 10mi
Dew Point: 28°   Wind: 3mph
Humidity: 96%   Direction: 200°SSW
Pressure: 30.01"   Gusts: NA
Location:  35.84°N, 110.38°W
Report Text: KINW 221256Z AUTO 20003KT 10SM CLR M02/M02 A3001 RMK AO2 SLP166 T10171022
Loading
Personal Weather Stations






























Interactive Weather Map New forecast layout! Learn more

10-Day Weather Forecast

Advertisements
Track Severe Weather on mobile